Time;durP1;ratioP1;P1;durP2;ratioP2;P2;SDS_P1;SDS_P2;PMS_P1;PMS_P2;Temp;Humidity;BMP_temperature;BMP_pressure;BME280_temperature;BME280_humidity;BME280_pressure;Samples;Min_cycle;Max_cycle;Signal;HPM_P1;HPM_P2
2023/04/08 00:00:17;;;;;;;18.70;16.47;;;7.70;99.90;;;;;;5022521;28;20195;-78
2023/04/08 00:02:43;;;;;;;19.03;16.40;;;7.80;99.90;;;;;;5013014;28;20233;-78
2023/04/08 00:05:08;;;;;;;19.63;17.10;;;7.70;99.90;;;;;;5026798;28;20186;-78
2023/04/08 00:07:35;;;;;;;18.93;16.50;;;7.70;99.90;;;;;;5026874;28;20221;-78
2023/04/08 00:10:00;;;;;;;19.03;16.50;;;7.60;99.90;;;;;;5017787;28;20268;-78
2023/04/08 00:12:26;;;;;;;18.00;16.10;;;7.60;99.90;;;;;;5009789;28;20453;-78
2023/04/08 00:14:52;;;;;;;28.47;18.07;;;7.50;99.90;;;;;;5024689;28;20206;-78
2023/04/08 00:17:17;;;;;;;20.33;16.73;;;7.50;99.90;;;;;;5017917;28;20697;-77
2023/04/08 00:19:43;;;;;;;33.53;18.33;;;7.50;99.90;;;;;;5026946;28;20735;-78
2023/04/08 00:22:09;;;;;;;27.43;18.63;;;7.50;99.90;;;;;;5029396;28;20186;-78
2023/04/08 00:24:35;;;;;;;26.63;17.03;;;7.50;99.90;;;;;;5020855;28;20463;-78
2023/04/08 00:27:01;;;;;;;39.40;17.03;;;7.60;99.90;;;;;;5019822;28;20503;-77
2023/04/08 00:29:27;;;;;;;42.43;19.90;;;7.50;99.90;;;;;;5013445;28;20208;-78
2023/04/08 00:31:53;;;;;;;36.53;17.07;;;7.40;99.90;;;;;;5021199;28;20832;-78
2023/04/08 00:34:19;;;;;;;31.17;17.70;;;7.40;99.90;;;;;;5021178;28;20418;-77
2023/04/08 00:36:46;;;;;;;23.47;15.60;;;7.60;99.90;;;;;;5013186;28;20598;-78
2023/04/08 00:39:13;;;;;;;17.17;15.37;;;7.50;99.90;;;;;;5022985;28;20462;-78
2023/04/08 00:41:38;;;;;;;14.83;13.23;;;7.30;99.90;;;;;;5019629;28;21005;-77
2023/04/08 00:44:04;;;;;;;17.40;14.50;;;7.20;99.90;;;;;;5025432;28;20410;-78
2023/04/08 00:46:35;;;;;;;15.53;13.83;;;7.30;99.90;;;;;;5028653;28;20673;-78
2023/04/08 00:49:01;;;;;;;20.50;15.10;;;7.30;99.90;;;;;;5024677;28;20406;-78
2023/04/08 00:51:31;;;;;;;18.23;15.27;;;7.20;99.90;;;;;;5029764;28;20500;-78
2023/04/08 00:53:56;;;;;;;15.70;14.00;;;7.20;99.90;;;;;;5021628;28;20421;-78
2023/04/08 00:56:23;;;;;;;16.43;14.00;;;7.20;99.90;;;;;;5024303;28;20417;-78
2023/04/08 00:58:52;;;;;;;15.80;14.03;;;7.20;99.90;;;;;;5024636;28;20257;-78
2023/04/08 01:01:41;;;;;;;18.57;14.73;;;7.00;99.90;;;;;;5016520;28;20836;-78
2023/04/08 01:04:30;;;;;;;24.43;14.03;;;7.10;99.90;;;;;;5021367;28;20933;-77
2023/04/08 01:07:06;;;;;;;25.63;13.97;;;7.20;99.90;;;;;;5004180;28;20806;-78
2023/04/08 01:09:37;;;;;;;29.27;16.33;;;7.30;99.90;;;;;;5029977;28;20463;-77
2023/04/08 01:12:06;;;;;;;64.23;17.37;;;7.20;99.90;;;;;;5035956;28;20453;-76
2023/04/08 01:14:37;;;;;;;32.53;15.87;;;7.20;99.90;;;;;;5028203;28;20418;-78
2023/04/08 01:17:04;;;;;;;39.17;15.03;;;7.10;99.90;;;;;;5030352;28;20438;-78
2023/04/08 01:19:33;;;;;;;42.17;14.73;;;6.90;99.90;;;;;;5026953;28;20448;-77
2023/04/08 01:22:28;;;;;;;38.27;14.33;;;6.90;99.90;;;;;;5031002;28;20433;-78
2023/04/08 01:25:03;;;;;;;53.83;13.33;;;6.80;99.90;;;;;;5033607;28;20481;-78
2023/04/08 01:27:31;;;;;;;41.43;14.10;;;6.80;99.90;;;;;;5014876;28;20502;-77
2023/04/08 01:29:59;;;;;;;45.03;13.47;;;6.80;99.90;;;;;;5024672;28;20430;-78
2023/04/08 01:32:26;;;;;;;33.00;13.80;;;6.70;99.90;;;;;;5027502;28;20477;-78
2023/04/08 01:34:53;;;;;;;17.10;12.00;;;6.80;99.90;;;;;;5026726;28;20417;-78
2023/04/08 01:37:20;;;;;;;24.20;12.90;;;6.60;99.90;;;;;;5032223;28;20464;-77
2023/04/08 01:39:48;;;;;;;21.97;11.40;;;6.70;99.90;;;;;;5032201;28;20461;-78
2023/04/08 01:42:15;;;;;;;17.13;10.60;;;6.70;99.90;;;;;;5026522;28;20911;-78
2023/04/08 01:44:42;;;;;;;35.73;12.53;;;6.70;99.90;;;;;;5033860;28;20487;-78
2023/04/08 01:47:11;;;;;;;25.93;11.83;;;6.70;99.90;;;;;;5030271;28;20417;-78
2023/04/08 01:49:38;;;;;;;41.40;12.07;;;6.60;99.90;;;;;;5035855;28;20452;-78
2023/04/08 01:52:05;;;;;;;16.00;11.33;;;6.60;99.90;;;;;;5028193;28;20484;-77
2023/04/08 01:54:31;;;;;;;19.53;10.90;;;6.50;99.90;;;;;;5026108;28;20421;-78
2023/04/08 01:56:58;;;;;;;15.73;10.90;;;6.60;99.90;;;;;;5027134;28;20474;-78
2023/04/08 01:59:30;;;;;;;14.50;11.00;;;6.60;99.90;;;;;;5009994;28;20453;-77
2023/04/08 02:01:56;;;;;;;14.90;10.07;;;6.40;99.90;;;;;;5026251;28;20478;-77
2023/04/08 02:04:22;;;;;;;18.13;10.20;;;6.30;99.90;;;;;;5027611;28;20414;-77
2023/04/08 02:06:48;;;;;;;16.97;11.17;;;6.40;99.90;;;;;;5028114;28;20418;-77
2023/04/08 02:09:14;;;;;;;21.47;11.50;;;6.50;99.90;;;;;;5027693;28;20214;-77
2023/04/08 02:11:40;;;;;;;29.60;13.80;;;6.40;99.90;;;;;;5026472;28;20897;-77
2023/04/08 02:14:05;;;;;;;34.63;13.80;;;6.50;99.90;;;;;;5009211;28;20734;-78
2023/04/08 02:17:04;;;;;;;36.50;14.20;;;6.50;99.90;;;;;;5027416;28;20179;-78
2023/04/08 02:19:46;;;;;;;24.20;12.67;;;6.50;99.90;;;;;;5021487;28;20218;-79
2023/04/08 02:22:24;;;;;;;24.53;12.93;;;6.60;99.90;;;;;;5025465;28;20402;-79
2023/04/08 02:24:51;;;;;;;33.47;14.10;;;6.60;99.90;;;;;;5041232;28;20410;-76
2023/04/08 02:27:18;;;;;;;29.27;13.67;;;6.60;99.90;;;;;;5025611;28;20501;-77
2023/04/08 02:29:46;;;;;;;46.90;13.60;;;6.70;99.90;;;;;;5008721;28;20488;-79
2023/04/08 02:32:13;;;;;;;46.80;13.33;;;6.80;99.90;;;;;;5026817;28;20489;-78
2023/04/08 02:34:40;;;;;;;39.27;13.20;;;6.60;99.90;;;;;;5025864;28;20417;-78
2023/04/08 02:37:07;;;;;;;35.47;14.77;;;6.50;99.90;;;;;;5026358;28;20414;-78
2023/04/08 02:39:34;;;;;;;25.07;13.03;;;6.60;99.90;;;;;;5025459;28;20454;-78
2023/04/08 02:42:00;;;;;;;49.13;14.50;;;6.60;99.90;;;;;;5026683;28;20490;-77
2023/04/08 02:44:25;;;;;;;48.93;13.03;;;6.80;99.90;;;;;;5009972;28;20510;-77
2023/04/08 02:46:51;;;;;;;44.70;13.90;;;6.80;99.90;;;;;;5028464;28;20421;-77
2023/04/08 02:49:17;;;;;;;34.80;13.33;;;6.60;99.90;;;;;;5043337;28;20279;-76
2023/04/08 02:51:42;;;;;;;63.33;13.93;;;6.70;99.90;;;;;;5027135;28;20198;-78
2023/04/08 02:54:08;;;;;;;51.53;14.17;;;6.60;99.90;;;;;;5028046;28;20179;-78
2023/04/08 02:56:34;;;;;;;72.20;14.43;;;6.70;99.90;;;;;;5027955;28;20179;-77
2023/04/08 02:59:00;;;;;;;35.27;14.20;;;6.50;99.90;;;;;;5043424;28;20258;-78
2023/04/08 03:01:25;;;;;;;48.40;14.07;;;6.60;99.90;;;;;;5026147;28;20183;-78
2023/04/08 03:03:51;;;;;;;36.60;13.50;;;6.50;99.90;;;;;;5043536;28;20425;-78
2023/04/08 03:06:17;;;;;;;37.70;14.00;;;6.60;99.90;;;;;;5047466;28;20190;-76
2023/04/08 03:08:43;;;;;;;30.97;12.40;;;6.50;99.90;;;;;;5034193;28;20190;-78
2023/04/08 03:11:09;;;;;;;33.03;14.27;;;6.70;99.90;;;;;;5046943;28;20433;-77
2023/04/08 03:13:34;;;;;;;32.17;12.60;;;6.50;99.90;;;;;;5016172;28;20284;-78
2023/04/08 03:16:00;;;;;;;35.23;14.00;;;6.50;99.90;;;;;;5016201;28;20238;-76
2023/04/08 03:18:26;;;;;;;29.33;12.77;;;6.60;99.90;;;;;;5014941;28;20183;-77
2023/04/08 03:20:52;;;;;;;27.23;11.73;;;6.40;99.90;;;;;;5016208;28;20206;-77
2023/04/08 03:23:17;;;;;;;29.87;12.70;;;6.60;99.90;;;;;;5014883;28;20191;-77
2023/04/08 03:25:43;;;;;;;41.23;12.87;;;6.70;99.90;;;;;;5017159;28;20233;-77
2023/04/08 03:28:09;;;;;;;33.30;12.13;;;6.40;99.90;;;;;;4997984;28;20208;-78
2023/04/08 03:30:34;;;;;;;30.87;13.70;;;6.60;99.90;;;;;;4995715;28;20321;-78
2023/04/08 03:33:02;;;;;;;27.77;12.30;;;6.50;99.90;;;;;;5012159;28;20467;-77
2023/04/08 03:35:28;;;;;;;26.00;11.40;;;6.40;99.90;;;;;;4996843;28;20684;-78
2023/04/08 03:37:54;;;;;;;27.33;11.87;;;6.40;99.90;;;;;;5013187;28;20454;-78
2023/04/08 03:40:20;;;;;;;28.83;12.10;;;6.30;99.90;;;;;;4998116;28;20215;-77
2023/04/08 03:42:45;;;;;;;35.53;11.87;;;6.10;99.90;;;;;;5014331;28;20423;-78
2023/04/08 03:45:11;;;;;;;27.17;11.63;;;6.40;99.90;;;;;;5027063;28;20187;-78
2023/04/08 03:47:37;;;;;;;36.30;12.97;;;6.20;99.90;;;;;;5033302;28;20190;-78
2023/04/08 03:50:03;;;;;;;47.33;13.20;;;6.30;99.90;;;;;;5017001;28;20206;-77
2023/04/08 03:52:29;;;;;;;43.33;13.23;;;6.30;99.90;;;;;;5017313;28;20302;-78
2023/04/08 03:54:54;;;;;;;46.37;13.60;;;6.20;99.90;;;;;;5017281;28;20442;-77
2023/04/08 03:57:20;;;;;;;39.33;12.73;;;6.30;99.90;;;;;;5016614;28;20262;-77
2023/04/08 03:59:46;;;;;;;31.27;12.10;;;6.00;99.90;;;;;;5016257;28;20253;-78
2023/04/08 04:02:11;;;;;;;36.47;12.63;;;6.20;99.90;;;;;;5017807;28;20187;-77
2023/04/08 04:04:37;;;;;;;49.63;12.70;;;6.10;99.90;;;;;;5033337;28;20258;-78
2023/04/08 04:07:03;;;;;;;50.27;11.60;;;6.00;99.90;;;;;;5014238;28;20179;-78
2023/04/08 04:09:28;;;;;;;32.73;12.17;;;6.30;99.90;;;;;;5017139;28;20210;-78
2023/04/08 04:11:54;;;;;;;36.00;11.50;;;6.10;99.90;;;;;;5020241;28;20336;-78
2023/04/08 04:14:20;;;;;;;47.63;11.30;;;6.10;99.90;;;;;;5023278;28;20504;-77
2023/04/08 04:16:45;;;;;;;31.13;10.80;;;6.10;99.90;;;;;;5022180;28;20186;-78
2023/04/08 04:19:11;;;;;;;29.73;10.40;;;6.00;99.90;;;;;;5020726;28;20199;-77
2023/04/08 04:21:37;;;;;;;30.27;10.40;;;6.10;99.90;;;;;;5026038;28;20264;-77
2023/04/08 04:24:02;;;;;;;32.23;11.40;;;5.90;99.90;;;;;;5016320;28;20190;-78
2023/04/08 04:26:28;;;;;;;33.53;10.00;;;6.00;99.90;;;;;;5019522;28;20199;-78
2023/04/08 04:28:54;;;;;;;25.83;9.57;;;6.00;99.90;;;;;;5005576;28;20426;-78
2023/04/08 04:31:27;;;;;;;32.67;10.40;;;6.00;99.90;;;;;;5019567;28;20198;-78
2023/04/08 04:33:53;;;;;;;18.80;9.13;;;6.30;99.90;;;;;;5025097;28;20214;-77
2023/04/08 04:36:19;;;;;;;15.50;8.43;;;6.10;99.90;;;;;;5024014;28;20501;-77
2023/04/08 04:38:45;;;;;;;16.40;9.10;;;5.90;99.90;;;;;;5027473;28;20487;-77
2023/04/08 04:41:11;;;;;;;20.70;10.10;;;6.00;99.90;;;;;;5024625;28;20202;-76
2023/04/08 04:43:36;;;;;;;35.10;8.63;;;6.00;99.90;;;;;;5029515;28;20479;-77
2023/04/08 04:46:03;;;;;;;29.33;10.23;;;6.00;99.90;;;;;;5025765;28;20198;-77
2023/04/08 04:48:28;;;;;;;36.60;9.90;;;6.00;99.90;;;;;;5024617;28;20504;-78
2023/04/08 04:50:55;;;;;;;45.77;10.60;;;6.00;99.90;;;;;;5023127;28;20446;-78
2023/04/08 04:53:21;;;;;;;26.37;9.50;;;6.20;99.90;;;;;;5020553;28;20211;-77
2023/04/08 04:55:47;;;;;;;22.17;10.03;;;6.10;99.90;;;;;;5023985;28;20414;-78
2023/04/08 04:58:12;;;;;;;39.83;9.60;;;6.00;99.90;;;;;;5019143;28;20193;-78
2023/04/08 05:00:38;;;;;;;15.60;8.80;;;6.20;99.90;;;;;;5027394;28;20213;-78
2023/04/08 05:03:04;;;;;;;38.77;10.27;;;6.20;99.90;;;;;;5023577;28;20187;-77
2023/04/08 05:05:30;;;;;;;28.60;9.93;;;6.10;99.90;;;;;;5029040;28;20244;-77
2023/04/08 05:07:55;;;;;;;51.83;11.27;;;6.20;99.90;;;;;;5018909;28;20191;-77
2023/04/08 05:10:21;;;;;;;27.90;9.77;;;6.00;99.90;;;;;;5020909;28;20497;-77
2023/04/08 05:12:47;;;;;;;39.23;10.03;;;6.00;99.90;;;;;;5020392;28;20223;-77
2023/04/08 05:15:13;;;;;;;30.30;10.40;;;6.10;99.90;;;;;;5020579;28;20175;-77
2023/04/08 05:17:38;;;;;;;49.30;11.20;;;6.10;99.90;;;;;;5019350;28;20258;-77
2023/04/08 05:20:05;;;;;;;63.43;11.00;;;6.10;99.90;;;;;;5020830;28;20324;-78
2023/04/08 05:22:30;;;;;;;38.30;10.67;;;6.20;99.90;;;;;;5018387;28;20214;-77
2023/04/08 05:24:56;;;;;;;84.00;11.83;;;6.00;99.90;;;;;;5019767;28;20422;-77
2023/04/08 05:27:22;;;;;;;31.90;13.60;;;6.00;99.90;;;;;;5005740;28;20179;-77
2023/04/08 05:29:47;;;;;;;40.10;13.67;;;6.20;99.90;;;;;;5002648;28;20212;-77
2023/04/08 05:32:13;;;;;;;34.97;12.80;;;6.30;99.90;;;;;;5002558;28;20220;-77
2023/04/08 05:34:39;;;;;;;42.10;12.57;;;6.30;99.90;;;;;;5012011;28;20194;-77
2023/04/08 05:37:05;;;;;;;46.70;13.87;;;6.20;99.90;;;;;;5012033;28;20186;-77
2023/04/08 05:39:30;;;;;;;43.77;13.70;;;6.20;99.90;;;;;;5011913;28;20881;-77
2023/04/08 05:41:56;;;;;;;34.67;14.73;;;6.40;99.90;;;;;;5012385;28;20701;-77
2023/04/08 05:44:21;;;;;;;35.40;13.90;;;6.30;99.90;;;;;;5011663;28;20234;-76
2023/04/08 05:46:47;;;;;;;50.37;16.60;;;6.50;99.90;;;;;;5026982;28;20183;-77
2023/04/08 05:49:13;;;;;;;50.83;16.93;;;6.40;99.90;;;;;;5011947;28;20282;-77
2023/04/08 05:51:38;;;;;;;35.30;16.73;;;6.50;99.90;;;;;;5011706;28;20595;-77
2023/04/08 05:54:04;;;;;;;37.50;16.03;;;6.60;99.90;;;;;;5011888;28;20262;-78
2023/04/08 05:56:31;;;;;;;43.93;17.03;;;6.70;99.90;;;;;;5015379;28;20203;-77
2023/04/08 05:58:57;;;;;;;43.60;17.23;;;6.50;99.90;;;;;;5017341;28;20189;-78
2023/04/08 06:01:22;;;;;;;31.93;16.90;;;6.60;99.90;;;;;;5015215;28;20442;-77
2023/04/08 06:03:48;;;;;;;43.80;17.30;;;6.70;99.90;;;;;;5014954;28;20485;-76
2023/04/08 06:06:14;;;;;;;48.03;17.67;;;6.70;99.90;;;;;;5025238;28;20195;-78
2023/04/08 06:08:40;;;;;;;56.13;17.90;;;6.80;99.90;;;;;;5042567;28;20450;-77
2023/04/08 06:11:06;;;;;;;52.93;22.83;;;6.70;99.90;;;;;;5021682;28;20203;-78
2023/04/08 06:13:32;;;;;;;42.93;19.07;;;6.80;99.90;;;;;;5018803;28;20242;-78
2023/04/08 06:15:58;;;;;;;35.77;19.17;;;6.90;99.90;;;;;;5026855;28;20409;-78
2023/04/08 06:18:24;;;;;;;53.90;21.63;;;6.90;99.90;;;;;;5027357;28;21055;-76
2023/04/08 06:20:49;;;;;;;54.40;21.03;;;6.90;99.90;;;;;;5025484;28;20507;-78
2023/04/08 06:23:15;;;;;;;40.67;21.20;;;7.00;99.90;;;;;;5010150;28;20192;-78
2023/04/08 06:25:41;;;;;;;43.03;20.47;;;7.00;99.90;;;;;;5006328;28;20190;-77
2023/04/08 06:28:07;;;;;;;50.80;20.70;;;7.30;99.90;;;;;;5024935;28;20436;-77
2023/04/08 06:30:33;;;;;;;62.23;22.87;;;7.10;99.90;;;;;;5026024;28;20564;-78
2023/04/08 06:32:59;;;;;;;49.33;22.47;;;7.10;99.90;;;;;;5026236;28;20283;-77
2023/04/08 06:35:24;;;;;;;53.10;22.33;;;7.20;99.90;;;;;;5025714;28;20265;-78
2023/04/08 06:37:50;;;;;;;35.43;20.93;;;7.20;99.90;;;;;;5025677;28;20191;-77
2023/04/08 06:40:16;;;;;;;63.47;22.80;;;7.20;99.90;;;;;;5024459;28;20245;-79
2023/04/08 06:42:43;;;;;;;37.23;21.50;;;7.30;99.90;;;;;;5024750;28;20190;-74
2023/04/08 06:45:09;;;;;;;34.10;21.43;;;7.30;99.90;;;;;;5001335;28;20206;-78
2023/04/08 06:47:35;;;;;;;35.77;20.37;;;7.20;99.90;;;;;;5001309;28;20438;-78
2023/04/08 06:50:00;;;;;;;36.80;22.10;;;7.30;99.90;;;;;;5018767;28;20467;-79
2023/04/08 06:52:26;;;;;;;37.63;21.50;;;7.30;99.90;;;;;;5019928;28;20234;-78
2023/04/08 06:54:52;;;;;;;34.83;21.27;;;7.40;99.90;;;;;;5013345;28;20179;-78
2023/04/08 06:57:18;;;;;;;39.13;21.53;;;7.20;99.90;;;;;;5011941;28;21055;-77
2023/04/08 06:59:43;;;;;;;44.17;23.13;;;7.40;99.90;;;;;;5003731;28;20664;-77
2023/04/08 07:02:09;;;;;;;46.33;21.80;;;7.40;99.90;;;;;;5011480;28;20195;-78
2023/04/08 07:04:35;;;;;;;40.33;21.43;;;7.50;99.90;;;;;;5012813;28;20657;-77
2023/04/08 07:07:00;;;;;;;43.97;23.10;;;7.50;99.90;;;;;;5010169;28;20194;-77
2023/04/08 07:09:26;;;;;;;37.13;22.37;;;7.70;99.90;;;;;;5021832;28;20846;-77
2023/04/08 07:11:51;;;;;;;45.90;24.10;;;7.40;99.90;;;;;;5000418;28;20872;-77
2023/04/08 07:14:18;;;;;;;49.20;23.80;;;7.40;99.90;;;;;;4993458;28;20638;-77
2023/04/08 07:16:44;;;;;;;33.93;22.67;;;7.50;99.90;;;;;;4994751;28;20215;-77
2023/04/08 07:19:10;;;;;;;33.67;22.27;;;7.50;99.90;;;;;;5013286;28;20446;-77
2023/04/08 07:21:36;;;;;;;29.73;22.00;;;7.70;99.90;;;;;;4995538;28;20636;-77
2023/04/08 07:24:02;;;;;;;30.17;21.43;;;7.80;99.90;;;;;;4995290;28;20437;-77
2023/04/08 07:26:27;;;;;;;42.77;24.70;;;7.80;99.90;;;;;;5014341;28;20187;-77
2023/04/08 07:28:53;;;;;;;35.07;24.60;;;7.90;99.90;;;;;;5011956;28;20229;-78
2023/04/08 07:31:19;;;;;;;38.80;27.10;;;7.60;99.90;;;;;;5013695;28;20214;-77
2023/04/08 07:33:45;;;;;;;34.37;25.00;;;7.70;99.90;;;;;;5028317;28;20233;-77
2023/04/08 07:36:12;;;;;;;41.00;26.53;;;7.60;99.90;;;;;;5031142;28;20210;-78
2023/04/08 07:38:38;;;;;;;47.20;28.33;;;7.70;99.90;;;;;;5030181;28;20429;-78
2023/04/08 07:41:04;;;;;;;47.03;30.47;;;7.80;99.90;;;;;;5016105;28;20549;-77
2023/04/08 07:43:31;;;;;;;48.03;30.83;;;7.80;99.90;;;;;;5014771;28;20434;-77
2023/04/08 07:46:03;;;;;;;47.70;30.07;;;7.90;99.90;;;;;;5010630;28;20426;-77
2023/04/08 07:48:33;;;;;;;45.07;29.27;;;8.00;99.90;;;;;;5015956;28;20418;-77
2023/04/08 07:51:06;;;;;;;53.67;32.30;;;8.00;99.90;;;;;;5013733;28;20445;-77
2023/04/08 07:53:33;;;;;;;53.20;33.60;;;8.10;99.90;;;;;;5012798;28;20470;-77
2023/04/08 07:55:59;;;;;;;58.37;37.23;;;8.10;99.90;;;;;;5015888;28;20501;-77
2023/04/08 07:58:25;;;;;;;52.57;35.70;;;8.10;99.90;;;;;;5014164;28;20414;-77
2023/04/08 08:00:51;;;;;;;52.40;35.20;;;8.10;99.90;;;;;;5012791;28;20438;-77
2023/04/08 08:03:17;;;;;;;53.60;37.70;;;8.00;99.90;;;;;;5012438;28;20437;-77
2023/04/08 08:05:42;;;;;;;50.43;33.87;;;8.10;99.90;;;;;;5011125;28;20900;-78
2023/04/08 08:08:10;;;;;;;52.00;33.90;;;8.30;99.90;;;;;;5011377;28;20810;-78
2023/04/08 08:10:38;;;;;;;40.83;30.90;;;8.20;99.90;;;;;;5013271;28;20567;-78
2023/04/08 08:13:05;;;;;;;45.33;31.53;;;8.20;99.90;;;;;;5012319;28;20454;-76
2023/04/08 08:15:31;;;;;;;42.77;30.70;;;8.20;99.90;;;;;;5013590;28;20406;-78
2023/04/08 08:17:56;;;;;;;43.90;32.03;;;8.20;99.90;;;;;;5013408;28;20414;-77
2023/04/08 08:20:22;;;;;;;42.30;31.30;;;8.20;99.90;;;;;;5012422;28;20418;-77
2023/04/08 08:22:47;;;;;;;38.80;29.60;;;8.20;99.90;;;;;;5013675;28;20187;-78
2023/04/08 08:25:13;;;;;;;31.73;26.17;;;8.40;99.90;;;;;;5013694;28;20187;-78
2023/04/08 08:27:41;;;;;;;27.93;23.63;;;8.40;99.90;;;;;;5013684;28;20183;-77
2023/04/08 08:30:08;;;;;;;30.67;24.57;;;8.40;99.90;;;;;;5028581;28;20195;-78
2023/04/08 08:32:34;;;;;;;29.43;24.57;;;8.30;99.90;;;;;;5029381;28;21020;-77
2023/04/08 08:35:00;;;;;;;24.73;21.50;;;8.40;99.90;;;;;;5013309;28;20417;-77
2023/04/08 08:37:26;;;;;;;23.00;20.47;;;8.40;99.90;;;;;;5013796;28;20403;-77
2023/04/08 08:39:51;;;;;;;25.87;20.70;;;8.50;99.90;;;;;;5028127;28;20464;-77
2023/04/08 08:42:22;;;;;;;24.00;19.70;;;8.50;99.90;;;;;;5013878;28;20669;-77
2023/04/08 08:44:47;;;;;;;26.97;17.90;;;8.50;99.90;;;;;;5003538;28;20616;-78
2023/04/08 08:47:14;;;;;;;20.80;18.60;;;8.60;99.90;;;;;;5008773;28;20442;-78
2023/04/08 08:49:40;;;;;;;18.50;16.60;;;8.50;99.90;;;;;;5008825;28;20439;-77
2023/04/08 08:52:06;;;;;;;20.30;16.90;;;8.50;99.90;;;;;;5009309;28;20541;-77
2023/04/08 08:54:32;;;;;;;18.60;16.70;;;8.60;99.90;;;;;;5008798;28;20415;-78
2023/04/08 08:56:58;;;;;;;20.30;17.33;;;8.50;99.90;;;;;;4993574;28;20403;-78
2023/04/08 08:59:23;;;;;;;18.70;16.70;;;8.50;99.90;;;;;;4993524;28;20192;-78
2023/04/08 09:01:49;;;;;;;19.93;17.10;;;8.50;99.90;;;;;;4992781;28;20268;-78
2023/04/08 09:04:19;;;;;;;18.27;16.00;;;8.50;99.90;;;;;;5012074;28;20180;-78
2023/04/08 09:06:48;;;;;;;20.30;17.33;;;8.60;99.90;;;;;;4996793;28;20413;-77
2023/04/08 09:09:14;;;;;;;20.00;17.20;;;8.60;99.90;;;;;;4997437;28;20514;-78
2023/04/08 09:11:45;;;;;;;23.10;18.70;;;8.60;99.90;;;;;;4997405;28;20474;-77
2023/04/08 09:14:21;;;;;;;20.23;18.03;;;8.60;99.90;;;;;;4997350;28;21098;-77
2023/04/08 09:16:47;;;;;;;21.30;17.60;;;8.90;99.90;;;;;;5012894;28;20523;-77
2023/04/08 09:19:13;;;;;;;21.27;17.90;;;8.90;99.90;;;;;;4997555;28;20522;-78
2023/04/08 09:21:40;;;;;;;19.67;17.63;;;8.80;99.90;;;;;;4997554;28;20439;-78
2023/04/08 09:24:06;;;;;;;21.57;17.60;;;9.10;99.90;;;;;;5008380;28;20188;-78
2023/04/08 09:26:33;;;;;;;21.07;15.63;;;8.90;99.90;;;;;;5005013;28;20433;-77
2023/04/08 09:29:03;;;;;;;19.57;17.13;;;9.10;99.90;;;;;;5012711;28;20422;-77
2023/04/08 09:31:35;;;;;;;20.67;16.80;;;8.80;99.90;;;;;;5014911;28;20489;-78
2023/04/08 09:34:12;;;;;;;20.33;17.40;;;8.80;99.90;;;;;;5012216;28;20472;-78
2023/04/08 09:36:38;;;;;;;20.43;16.53;;;9.00;99.90;;;;;;5006438;28;20418;-78
2023/04/08 09:39:05;;;;;;;18.90;17.00;;;8.70;99.90;;;;;;5012902;28;20444;-78
2023/04/08 09:41:34;;;;;;;17.57;15.77;;;8.90;99.90;;;;;;5008505;28;20713;-74
2023/04/08 09:44:03;;;;;;;18.50;16.47;;;8.90;99.90;;;;;;5016342;28;20422;-78
2023/04/08 09:46:43;;;;;;;18.43;16.53;;;8.90;99.90;;;;;;5016961;28;20422;-79
2023/04/08 09:49:26;;;;;;;17.77;13.63;;;8.90;99.90;;;;;;5017012;28;20456;-78
2023/04/08 09:52:10;;;;;;;16.30;14.70;;;8.80;99.90;;;;;;5029550;28;20865;-78
2023/04/08 09:54:58;;;;;;;16.20;12.93;;;8.80;99.90;;;;;;5026556;28;20413;-78
2023/04/08 09:57:35;;;;;;;14.67;12.97;;;9.00;99.90;;;;;;5009189;28;20418;-78
2023/04/08 10:00:23;;;;;;;13.87;12.50;;;8.70;99.90;;;;;;5017363;28;20512;-78
2023/04/08 10:02:58;;;;;;;14.03;12.63;;;8.80;99.90;;;;;;5017621;28;20426;-78
2023/04/08 10:05:24;;;;;;;14.00;12.70;;;8.90;99.90;;;;;;5015921;28;20413;-78
2023/04/08 10:07:51;;;;;;;12.90;11.60;;;8.70;99.90;;;;;;5017890;28;20489;-78
2023/04/08 10:10:17;;;;;;;12.93;11.63;;;8.80;99.90;;;;;;5019338;28;20438;-78
2023/04/08 10:12:43;;;;;;;13.17;11.73;;;8.80;99.90;;;;;;5009482;28;20517;-78
2023/04/08 10:15:29;;;;;;;13.27;11.53;;;8.80;99.90;;;;;;5014330;28;20414;-78
2023/04/08 10:18:19;;;;;;;12.27;11.07;;;8.80;99.90;;;;;;5012958;28;20476;-77
2023/04/08 10:20:46;;;;;;;13.80;11.90;;;8.70;99.90;;;;;;5011897;28;20446;-78
2023/04/08 10:23:16;;;;;;;12.73;11.40;;;8.70;99.90;;;;;;5018966;28;20422;-79
2023/04/08 10:25:46;;;;;;;14.67;12.00;;;8.70;99.90;;;;;;5019961;28;20486;-77
2023/04/08 10:28:18;;;;;;;13.40;12.10;;;8.60;99.90;;;;;;5004007;28;20431;-77
2023/04/08 10:30:44;;;;;;;14.77;12.70;;;8.60;99.90;;;;;;5014754;28;20442;-78
2023/04/08 10:33:11;;;;;;;13.40;10.80;;;8.60;99.90;;;;;;5006419;28;20525;-77
2023/04/08 10:35:43;;;;;;;14.13;11.80;;;8.60;99.90;;;;;;4998014;28;20485;-78
2023/04/08 10:38:08;;;;;;;12.30;11.10;;;8.60;99.90;;;;;;4999503;28;20476;-77
2023/04/08 10:40:40;;;;;;;13.73;12.13;;;8.50;99.90;;;;;;4999920;28;20439;-78
2023/04/08 10:43:06;;;;;;;14.03;12.53;;;8.50;99.90;;;;;;5008742;28;20210;-78
2023/04/08 10:45:32;;;;;;;12.10;10.83;;;8.70;99.90;;;;;;5006860;28;20460;-78
2023/04/08 10:48:21;;;;;;;15.37;12.83;;;8.60;99.90;;;;;;5014424;28;20794;-78
2023/04/08 10:51:01;;;;;;;13.77;12.30;;;8.60;99.90;;;;;;5000214;28;20451;-78
2023/04/08 10:53:34;;;;;;;17.27;12.40;;;8.80;99.90;;;;;;4998655;28;20529;-78
2023/04/08 10:56:03;;;;;;;12.83;11.53;;;8.70;99.90;;;;;;5005786;28;20430;-78
2023/04/08 10:58:29;;;;;;;15.90;12.60;;;8.80;99.90;;;;;;5003537;28;20462;-77
2023/04/08 11:00:55;;;;;;;13.87;12.00;;;8.70;99.90;;;;;;5008859;28;20451;-78
2023/04/08 11:03:21;;;;;;;15.20;12.67;;;8.60;99.90;;;;;;5016915;28;20269;-78
2023/04/08 11:05:48;;;;;;;14.30;11.87;;;8.70;99.90;;;;;;5013511;28;20965;-78
2023/04/08 11:08:14;;;;;;;15.67;13.00;;;9.00;99.90;;;;;;5024151;28;20278;-78
2023/04/08 11:10:41;;;;;;;17.00;12.97;;;9.00;99.90;;;;;;5020353;28;20426;-78
2023/04/08 11:13:11;;;;;;;18.83;14.97;;;9.00;99.90;;;;;;5019644;28;20214;-78
2023/04/08 11:15:37;;;;;;;16.67;14.87;;;9.30;99.90;;;;;;5003649;28;20418;-78
2023/04/08 11:18:04;;;;;;;17.03;15.10;;;9.20;99.90;;;;;;5012959;28;20434;-78
2023/04/08 11:20:34;;;;;;;20.27;16.90;;;9.20;99.90;;;;;;5011255;28;20434;-77
2023/04/08 11:23:00;;;;;;;19.53;17.03;;;9.10;99.90;;;;;;5015518;28;20529;-77
2023/04/08 11:25:27;;;;;;;19.77;17.30;;;9.10;99.90;;;;;;5011291;28;20446;-77
2023/04/08 11:27:53;;;;;;;19.40;17.27;;;9.10;99.90;;;;;;5009023;28;20191;-77
2023/04/08 11:30:19;;;;;;;21.27;18.63;;;9.20;99.90;;;;;;5016823;28;20446;-77
2023/04/08 11:32:45;;;;;;;24.60;17.83;;;9.40;99.90;;;;;;5001368;28;20211;-77
2023/04/08 11:35:10;;;;;;;19.83;17.70;;;9.40;99.90;;;;;;4999386;28;20430;-76
2023/04/08 11:37:40;;;;;;;18.90;16.90;;;9.40;99.90;;;;;;4999501;28;20423;-78
2023/04/08 11:40:10;;;;;;;22.67;18.70;;;9.50;99.90;;;;;;5002401;28;20751;-78
2023/04/08 11:42:37;;;;;;;22.03;18.40;;;9.40;99.90;;;;;;5010087;28;20534;-78
2023/04/08 11:45:11;;;;;;;22.27;19.77;;;9.40;99.90;;;;;;5020621;28;20429;-77
2023/04/08 11:47:37;;;;;;;22.97;19.90;;;9.40;99.90;;;;;;5020788;28;20488;-78
2023/04/08 11:50:03;;;;;;;22.27;19.17;;;9.40;99.90;;;;;;5036044;28;20442;-78
2023/04/08 11:52:40;;;;;;;24.90;21.27;;;9.30;99.90;;;;;;5015184;28;20480;-78
2023/04/08 11:55:06;;;;;;;28.80;20.57;;;9.40;99.90;;;;;;5011263;28;20795;-77
2023/04/08 11:57:32;;;;;;;24.20;20.37;;;9.40;99.90;;;;;;5032152;28;20439;-78
2023/04/08 11:59:58;;;;;;;23.03;20.50;;;9.40;99.90;;;;;;5008568;28;20955;-78
2023/04/08 12:02:23;;;;;;;23.40;20.90;;;9.50;99.90;;;;;;5020705;28;20183;-78
2023/04/08 12:04:49;;;;;;;21.07;18.87;;;9.60;99.90;;;;;;5009123;28;20668;-78
2023/04/08 12:07:16;;;;;;;23.10;20.23;;;9.70;99.90;;;;;;5019486;28;20187;-78
2023/04/08 12:09:42;;;;;;;20.63;18.50;;;9.80;99.90;;;;;;5002432;28;20441;-77
2023/04/08 12:12:07;;;;;;;22.40;18.97;;;9.90;99.90;;;;;;5009855;28;20569;-78
2023/04/08 12:14:33;;;;;;;24.83;20.27;;;9.90;99.90;;;;;;5008881;28;20245;-78
2023/04/08 12:16:59;;;;;;;23.70;21.27;;;10.00;99.90;;;;;;5033913;28;20186;-78
2023/04/08 12:19:24;;;;;;;23.33;20.70;;;10.00;99.90;;;;;;5027970;28;20231;-78
2023/04/08 12:21:50;;;;;;;22.40;20.10;;;10.10;99.90;;;;;;5016381;28;20211;-78
2023/04/08 12:24:15;;;;;;;22.53;20.33;;;10.10;99.90;;;;;;5017820;28;20301;-78
2023/04/08 12:26:41;;;;;;;22.27;19.93;;;10.10;99.90;;;;;;5020294;28;20543;-77
2023/04/08 12:29:10;;;;;;;21.37;19.13;;;10.10;99.90;;;;;;5020212;28;20637;-78
2023/04/08 12:31:36;;;;;;;22.93;20.43;;;10.10;99.90;;;;;;5027851;28;20211;-78
2023/04/08 12:34:01;;;;;;;22.50;19.30;;;10.10;99.90;;;;;;5023733;28;20461;-78
2023/04/08 12:36:27;;;;;;;24.73;21.40;;;10.10;99.90;;;;;;5022571;28;20191;-78